Time;durP1;ratioP1;P1;durP2;ratioP2;P2;SDS_P1;SDS_P2;PMS_P1;PMS_P2;Temp;Humidity;BMP_temperature;BMP_pressure;BME280_temperature;BME280_humidity;BME280_pressure;Samples;Min_cycle;Max_cycle;Signal;HPM_P1;HPM_P2
2023/05/11 00:00:45;;;;;;;2.60;2.10;;;13.90;97.30;;;;;;4996557;28;20169;-89
2023/05/11 00:03:11;;;;;;;2.07;1.83;;;13.90;97.30;;;;;;4996306;28;20781;-89
2023/05/11 00:05:36;;;;;;;3.37;2.30;;;13.90;97.30;;;;;;4994907;28;20187;-89
2023/05/11 00:08:02;;;;;;;2.97;2.50;;;13.90;97.30;;;;;;4995933;28;20193;-89
2023/05/11 00:10:28;;;;;;;3.20;2.87;;;13.90;97.30;;;;;;4996583;28;20189;-88
2023/05/11 00:12:54;;;;;;;4.60;2.80;;;13.90;97.30;;;;;;4996044;28;20201;-89
2023/05/11 00:15:20;;;;;;;1.83;1.80;;;13.90;97.30;;;;;;4994865;28;20440;-89
2023/05/11 00:17:45;;;;;;;4.90;2.23;;;13.90;97.30;;;;;;4995276;28;20490;-89
2023/05/11 00:20:11;;;;;;;3.73;3.20;;;13.90;97.30;;;;;;4995239;28;20177;-89
2023/05/11 00:22:36;;;;;;;2.47;2.27;;;13.90;97.30;;;;;;4995484;28;20427;-89
2023/05/11 00:25:02;;;;;;;5.33;2.87;;;13.90;97.30;;;;;;4993641;28;20664;-89
2023/05/11 00:27:27;;;;;;;4.10;1.77;;;13.90;97.30;;;;;;4996402;28;20188;-89
2023/05/11 00:29:53;;;;;;;4.53;2.70;;;14.00;97.30;;;;;;4996344;28;20181;-90
2023/05/11 00:32:18;;;;;;;2.67;2.47;;;14.00;97.30;;;;;;4996659;28;20216;-89
2023/05/11 00:34:44;;;;;;;5.03;2.53;;;14.00;97.30;;;;;;4994905;28;20205;-88
2023/05/11 00:37:10;;;;;;;2.13;2.00;;;14.00;97.30;;;;;;4997032;28;20178;-88
2023/05/11 00:39:39;;;;;;;3.27;2.20;;;14.00;97.30;;;;;;5014034;28;20216;-89
2023/05/11 00:42:05;;;;;;;3.10;1.90;;;14.00;97.30;;;;;;4996963;28;20185;-89
2023/05/11 00:44:30;;;;;;;4.60;3.00;;;14.00;97.30;;;;;;4997687;28;20463;-87
2023/05/11 00:46:57;;;;;;;3.13;2.60;;;14.00;97.30;;;;;;4996559;28;20427;-89
2023/05/11 00:49:22;;;;;;;7.10;4.27;;;14.00;97.30;;;;;;4996444;28;20724;-90
2023/05/11 00:51:48;;;;;;;2.90;2.73;;;14.00;97.30;;;;;;5016427;28;20551;-89
2023/05/11 00:54:14;;;;;;;3.83;2.80;;;14.00;97.30;;;;;;5005360;28;20223;-92
2023/05/11 00:56:41;;;;;;;1.70;1.60;;;14.00;97.30;;;;;;5018048;28;20189;-92
2023/05/11 00:59:07;;;;;;;1.50;1.40;;;14.00;97.30;;;;;;5019379;28;20425;-90
2023/05/11 01:01:34;;;;;;;7.60;2.93;;;14.00;97.30;;;;;;5004285;28;20427;-90
2023/05/11 01:04:03;;;;;;;3.50;2.10;;;14.00;97.30;;;;;;4999426;28;20450;-90
2023/05/11 01:07:22;;;;;;;6.03;3.50;;;13.90;97.30;;;;;;4998146;28;20420;-89
2023/05/11 01:10:03;;;;;;;2.93;2.63;;;13.90;97.30;;;;;;4986145;28;20433;-89
2023/05/11 01:12:49;;;;;;;7.70;2.63;;;13.90;97.30;;;;;;4963215;28;20795;-88
2023/05/11 01:15:27;;;;;;;14.10;3.83;;;13.90;97.30;;;;;;4980281;28;20447;-89
2023/05/11 01:18:22;;;;;;;3.40;2.43;;;13.90;97.30;;;;;;4996161;28;20420;-89
2023/05/11 01:20:51;;;;;;;2.47;2.30;;;13.90;97.30;;;;;;4994805;28;20420;-89
2023/05/11 01:23:45;;;;;;;2.03;1.60;;;13.90;97.30;;;;;;4994648;28;20423;-89
2023/05/11 01:26:33;;;;;;;3.27;2.80;;;13.90;97.30;;;;;;4986922;28;20438;-88
2023/05/11 01:29:20;;;;;;;5.13;3.00;;;13.90;97.30;;;;;;4995009;28;20416;-89
2023/05/11 01:31:47;;;;;;;2.43;2.10;;;13.80;97.30;;;;;;4994560;28;20466;-88
2023/05/11 01:34:22;;;;;;;5.43;2.50;;;13.80;97.30;;;;;;4993863;28;20511;-89
2023/05/11 01:37:04;;;;;;;3.47;2.13;;;13.80;97.30;;;;;;4992768;28;20453;-89
2023/05/11 01:39:36;;;;;;;2.50;1.93;;;13.80;97.30;;;;;;4993201;28;20427;-88
2023/05/11 01:42:08;;;;;;;8.07;4.10;;;13.80;97.30;;;;;;5004066;28;20806;-88
2023/05/11 01:44:36;;;;;;;2.53;2.33;;;13.80;97.30;;;;;;4994309;28;20534;-88
2023/05/11 01:47:03;;;;;;;5.87;2.93;;;13.80;97.30;;;;;;4986933;28;20515;-89
2023/05/11 01:49:32;;;;;;;2.40;2.20;;;13.70;97.30;;;;;;4994114;28;20432;-89
2023/05/11 01:52:00;;;;;;;4.17;2.90;;;13.70;97.30;;;;;;5011534;28;20479;-89
2023/05/11 01:54:27;;;;;;;2.43;2.13;;;13.70;97.30;;;;;;4993938;28;20495;-89
2023/05/11 01:56:55;;;;;;;7.20;2.20;;;13.70;97.30;;;;;;4992690;28;20428;-89
2023/05/11 01:59:23;;;;;;;3.30;1.93;;;13.70;97.30;;;;;;4993932;28;20450;-89
2023/05/11 02:01:49;;;;;;;3.90;2.47;;;13.70;97.30;;;;;;5002171;28;20809;-89
2023/05/11 02:04:17;;;;;;;6.37;3.43;;;13.70;97.30;;;;;;4994237;28;20447;-90
2023/05/11 02:06:45;;;;;;;8.17;5.73;;;13.70;97.30;;;;;;4992333;28;20659;-89
2023/05/11 02:09:14;;;;;;;2.43;2.23;;;13.70;97.30;;;;;;5019805;28;20428;-89
2023/05/11 02:11:42;;;;;;;4.30;3.10;;;13.70;97.30;;;;;;4993375;28;20838;-90
2023/05/11 02:14:08;;;;;;;3.43;2.97;;;13.70;97.30;;;;;;4993701;28;20456;-89
2023/05/11 02:16:34;;;;;;;2.63;2.40;;;13.60;97.30;;;;;;4992324;28;20474;-89
2023/05/11 02:19:00;;;;;;;3.40;3.17;;;13.60;97.30;;;;;;4993731;28;20478;-90
2023/05/11 02:21:26;;;;;;;1.63;1.53;;;13.60;97.30;;;;;;4993598;28;20427;-89
2023/05/11 02:23:53;;;;;;;1.60;1.50;;;13.60;97.30;;;;;;4993760;28;20205;-89
2023/05/11 02:26:19;;;;;;;3.63;2.73;;;13.70;97.30;;;;;;5005228;28;20436;-88
2023/05/11 02:28:45;;;;;;;4.27;4.03;;;13.70;97.30;;;;;;5012464;28;20420;-90
2023/05/11 02:31:17;;;;;;;4.10;2.80;;;13.60;97.30;;;;;;5018553;28;20185;-89
2023/05/11 02:33:47;;;;;;;3.60;2.90;;;13.60;97.30;;;;;;5004810;28;20205;-89
2023/05/11 02:36:17;;;;;;;4.13;2.23;;;13.60;97.30;;;;;;5012205;28;20482;-89
2023/05/11 02:38:45;;;;;;;5.07;3.40;;;13.60;97.30;;;;;;4993324;28;20443;-89
2023/05/11 02:41:15;;;;;;;2.97;2.40;;;13.60;97.30;;;;;;4994771;28;20432;-89
2023/05/11 02:43:46;;;;;;;3.20;3.03;;;13.60;97.30;;;;;;5010814;28;20472;-89
2023/05/11 02:46:15;;;;;;;2.33;1.40;;;13.60;97.30;;;;;;4991538;28;20946;-89
2023/05/11 02:48:45;;;;;;;2.63;2.43;;;13.60;97.30;;;;;;4993070;28;20479;-89
2023/05/11 02:51:14;;;;;;;2.87;2.20;;;13.60;97.30;;;;;;5010472;28;20478;-89
2023/05/11 02:53:42;;;;;;;2.40;1.87;;;13.60;97.30;;;;;;4992873;28;20459;-88
2023/05/11 02:56:08;;;;;;;2.47;1.80;;;13.60;97.30;;;;;;4991543;28;20804;-89
2023/05/11 02:58:34;;;;;;;4.23;2.97;;;13.60;97.30;;;;;;4992381;28;20436;-89
2023/05/11 03:01:00;;;;;;;4.30;3.20;;;13.60;97.30;;;;;;4992414;28;20989;-88
2023/05/11 03:03:26;;;;;;;2.70;2.50;;;13.60;97.30;;;;;;4992728;28;20440;-89
2023/05/11 03:05:52;;;;;;;3.37;2.30;;;13.60;97.30;;;;;;4990435;28;20196;-89
2023/05/11 03:08:18;;;;;;;8.90;1.97;;;13.60;97.30;;;;;;4992764;28;20424;-91
2023/05/11 03:10:45;;;;;;;2.67;1.83;;;13.60;97.30;;;;;;4992944;28;20188;-89
2023/05/11 03:13:11;;;;;;;2.90;2.70;;;13.60;97.30;;;;;;4992846;28;21005;-89
2023/05/11 03:15:37;;;;;;;2.00;1.80;;;13.60;97.30;;;;;;4991988;28;20428;-86
2023/05/11 03:18:04;;;;;;;3.30;2.93;;;13.60;97.30;;;;;;4992162;28;20432;-86
2023/05/11 03:20:32;;;;;;;3.00;2.70;;;13.60;97.30;;;;;;4992647;28;20424;-88
2023/05/11 03:23:00;;;;;;;3.90;3.40;;;13.60;97.30;;;;;;4992746;28;20431;-87
2023/05/11 03:25:27;;;;;;;3.27;3.03;;;13.60;97.30;;;;;;4991417;28;21006;-87
2023/05/11 03:27:54;;;;;;;6.10;3.20;;;13.60;97.30;;;;;;4994738;28;20836;-86
2023/05/11 03:30:20;;;;;;;4.17;2.83;;;13.60;97.30;;;;;;4999062;28;20423;-86
2023/05/11 03:32:46;;;;;;;7.10;4.13;;;13.60;97.30;;;;;;4992628;28;20544;-86
2023/05/11 03:35:11;;;;;;;3.87;3.40;;;13.60;97.30;;;;;;4991419;28;20527;-86
2023/05/11 03:37:37;;;;;;;7.17;3.77;;;13.60;97.30;;;;;;4992939;28;20178;-87
2023/05/11 03:40:05;;;;;;;5.03;2.80;;;13.60;97.30;;;;;;4993646;28;20537;-90
2023/05/11 03:42:33;;;;;;;3.17;2.50;;;13.60;97.30;;;;;;4992928;28;20424;-89
2023/05/11 03:45:00;;;;;;;6.90;3.40;;;13.60;97.30;;;;;;4990721;28;20495;-88
2023/05/11 03:47:27;;;;;;;6.43;4.57;;;13.60;97.30;;;;;;4992666;28;20428;-87
2023/05/11 03:49:54;;;;;;;5.73;3.50;;;13.60;97.30;;;;;;4994390;28;20802;-89
2023/05/11 03:52:20;;;;;;;3.03;2.83;;;13.60;97.30;;;;;;4998566;28;20472;-89
2023/05/11 03:54:46;;;;;;;5.20;2.53;;;13.60;97.30;;;;;;5008422;28;20440;-87
2023/05/11 03:57:13;;;;;;;2.10;1.80;;;13.60;97.30;;;;;;4992381;28;20427;-90
2023/05/11 03:59:39;;;;;;;7.40;3.33;;;13.60;97.30;;;;;;4992761;28;20181;-89
2023/05/11 04:02:05;;;;;;;4.17;3.03;;;13.60;97.30;;;;;;4992373;28;20424;-89
2023/05/11 04:04:31;;;;;;;6.83;3.63;;;13.60;97.30;;;;;;4993134;28;20447;-89
2023/05/11 04:06:57;;;;;;;3.40;2.30;;;13.60;97.30;;;;;;4991380;28;20424;-89
2023/05/11 04:09:23;;;;;;;3.17;2.70;;;13.60;97.30;;;;;;4992865;28;20242;-89
2023/05/11 04:11:49;;;;;;;5.60;3.43;;;13.60;97.30;;;;;;4992905;28;20542;-89
2023/05/11 04:14:16;;;;;;;3.40;3.20;;;13.60;97.30;;;;;;4992241;28;20208;-90
2023/05/11 04:16:42;;;;;;;6.77;3.57;;;13.60;97.30;;;;;;4990216;28;20185;-89
2023/05/11 04:19:07;;;;;;;5.10;2.93;;;13.60;97.30;;;;;;4992997;28;20769;-88
2023/05/11 04:21:33;;;;;;;5.30;2.87;;;13.60;97.30;;;;;;4991415;28;20224;-88
2023/05/11 04:23:58;;;;;;;3.37;2.33;;;13.60;97.30;;;;;;5009833;28;20193;-89
2023/05/11 04:26:25;;;;;;;2.20;2.03;;;13.50;97.30;;;;;;4990190;28;20247;-89
2023/05/11 04:28:50;;;;;;;5.87;3.63;;;13.50;97.30;;;;;;4993478;28;20201;-89
2023/05/11 04:31:16;;;;;;;5.83;3.53;;;13.50;97.30;;;;;;4995986;28;20459;-88
2023/05/11 04:33:41;;;;;;;3.43;2.50;;;13.50;97.30;;;;;;5003917;28;20208;-88
2023/05/11 04:36:07;;;;;;;8.40;5.00;;;13.50;97.30;;;;;;4994851;28;20243;-89
2023/05/11 04:38:32;;;;;;;3.53;2.80;;;13.60;97.30;;;;;;5013277;28;20216;-89
2023/05/11 04:41:05;;;;;;;3.37;3.20;;;13.60;97.30;;;;;;4995807;28;20227;-89
2023/05/11 04:43:30;;;;;;;4.30;4.03;;;13.60;97.30;;;;;;4995625;28;20201;-89
2023/05/11 04:45:56;;;;;;;3.00;2.80;;;13.60;97.30;;;;;;5053272;22;20567;-88
2023/05/11 04:48:22;;;;;;;5.50;3.97;;;13.70;97.30;;;;;;5054734;28;20183;-88
2023/05/11 04:50:47;;;;;;;7.80;2.47;;;13.70;97.30;;;;;;5054206;28;20189;-88
2023/05/11 04:53:13;;;;;;;5.50;3.90;;;13.70;97.30;;;;;;5054237;28;20215;-89
2023/05/11 04:55:38;;;;;;;6.47;5.10;;;13.80;97.30;;;;;;5045486;28;20249;-88
2023/05/11 04:58:04;;;;;;;4.37;3.67;;;13.80;97.30;;;;;;5034636;28;20179;-88
2023/05/11 05:00:29;;;;;;;8.17;4.10;;;13.80;97.30;;;;;;5034646;28;20551;-87
2023/05/11 05:02:55;;;;;;;4.27;3.10;;;13.90;97.30;;;;;;5034170;28;20180;-89
2023/05/11 05:05:20;;;;;;;8.83;5.27;;;13.90;97.30;;;;;;5049680;28;20216;-88
2023/05/11 05:07:46;;;;;;;6.57;5.60;;;13.90;97.30;;;;;;5051523;28;20199;-86
2023/05/11 05:10:11;;;;;;;6.90;4.13;;;13.90;97.30;;;;;;5046005;28;20217;-90
2023/05/11 05:12:38;;;;;;;7.50;4.50;;;14.00;97.30;;;;;;5038775;28;20603;-88
2023/05/11 05:15:04;;;;;;;7.53;4.90;;;14.00;97.30;;;;;;5031630;28;20478;-89
2023/05/11 05:17:30;;;;;;;3.70;3.50;;;14.00;97.30;;;;;;5033590;28;20433;-89
2023/05/11 05:19:56;;;;;;;6.00;3.53;;;14.00;97.30;;;;;;5051887;28;20427;-88
2023/05/11 05:22:23;;;;;;;4.80;4.53;;;14.10;97.30;;;;;;5033165;28;20438;-88
2023/05/11 05:24:48;;;;;;;8.03;3.13;;;14.10;97.30;;;;;;5030974;28;20474;-87
2023/05/11 05:27:14;;;;;;;3.20;2.63;;;14.10;97.30;;;;;;5032401;28;20442;-89
2023/05/11 05:29:39;;;;;;;4.60;4.30;;;14.10;97.30;;;;;;5040404;28;20733;-88
2023/05/11 05:32:07;;;;;;;4.03;3.37;;;14.10;97.30;;;;;;5034575;28;20200;-88
2023/05/11 05:34:33;;;;;;;9.90;5.80;;;14.10;97.30;;;;;;5033605;28;20206;-89
2023/05/11 05:36:58;;;;;;;6.77;3.57;;;14.20;97.30;;;;;;5040197;28;20410;-88
2023/05/11 05:39:24;;;;;;;3.13;2.93;;;14.20;97.30;;;;;;5033508;28;20433;-89
2023/05/11 05:41:49;;;;;;;4.47;4.20;;;14.30;97.30;;;;;;5032902;28;20188;-88
2023/05/11 05:44:15;;;;;;;7.30;5.67;;;14.40;97.30;;;;;;5051281;28;20241;-90
2023/05/11 05:46:40;;;;;;;5.77;3.57;;;14.40;97.30;;;;;;5031672;28;20548;-88
2023/05/11 05:49:06;;;;;;;6.03;2.80;;;14.40;97.30;;;;;;5033306;28;20249;-90
2023/05/11 05:51:31;;;;;;;4.67;4.23;;;14.50;97.30;;;;;;5063853;28;20215;-88
2023/05/11 05:53:57;;;;;;;8.87;3.47;;;14.60;97.30;;;;;;5033237;28;20208;-88
2023/05/11 05:56:23;;;;;;;5.43;3.70;;;14.60;97.30;;;;;;5031781;28;20419;-87
2023/05/11 05:58:49;;;;;;;6.60;3.60;;;14.70;97.30;;;;;;5025298;28;20209;-88
2023/05/11 06:01:15;;;;;;;4.93;3.03;;;14.80;97.30;;;;;;5033295;28;20426;-88
2023/05/11 06:03:41;;;;;;;8.37;4.73;;;14.90;97.30;;;;;;5033326;28;20198;-88
2023/05/11 06:06:06;;;;;;;2.67;2.47;;;14.90;97.30;;;;;;5031501;28;20202;-89
2023/05/11 06:08:32;;;;;;;5.27;4.97;;;15.10;97.30;;;;;;5033060;28;20212;-87
2023/05/11 06:10:58;;;;;;;4.80;2.53;;;15.10;97.30;;;;;;5041500;28;20237;-87
2023/05/11 06:13:23;;;;;;;4.20;3.60;;;15.20;97.30;;;;;;5032978;28;20212;-88
2023/05/11 06:15:49;;;;;;;10.00;3.63;;;15.20;97.30;;;;;;5039926;28;20199;-86
2023/05/11 06:18:14;;;;;;;5.20;3.83;;;15.20;97.30;;;;;;5050912;28;20184;-88
2023/05/11 06:20:40;;;;;;;6.10;2.83;;;15.20;97.30;;;;;;5041301;28;20180;-87
2023/05/11 06:23:05;;;;;;;2.60;2.40;;;15.30;97.30;;;;;;5032570;28;20199;-88
2023/05/11 06:25:34;;;;;;;3.10;2.90;;;15.30;97.30;;;;;;5031538;28;20211;-88
2023/05/11 06:28:00;;;;;;;6.97;4.03;;;15.30;97.30;;;;;;5032844;28;20200;-88
2023/05/11 06:30:26;;;;;;;4.03;3.57;;;15.40;97.30;;;;;;5033272;28;20447;-87
2023/05/11 06:32:51;;;;;;;4.63;2.60;;;15.40;97.30;;;;;;5050597;28;20211;-88
2023/05/11 06:35:16;;;;;;;5.77;3.23;;;15.40;97.30;;;;;;5031946;28;20195;-88
2023/05/11 06:37:42;;;;;;;3.53;2.43;;;15.50;97.30;;;;;;5050880;28;20306;-88
2023/05/11 06:40:08;;;;;;;2.80;2.60;;;15.50;97.30;;;;;;5032809;28;20241;-88
2023/05/11 06:42:34;;;;;;;6.83;3.50;;;15.50;97.30;;;;;;5031637;28;20195;-88
2023/05/11 06:45:00;;;;;;;3.73;2.73;;;15.60;97.30;;;;;;5039320;28;20472;-88
2023/05/11 06:47:25;;;;;;;5.13;3.50;;;15.60;97.30;;;;;;5032619;28;20203;-89
2023/05/11 06:49:51;;;;;;;4.73;2.60;;;15.60;97.30;;;;;;5049478;28;20596;-87
2023/05/11 06:52:16;;;;;;;5.13;3.00;;;15.60;97.30;;;;;;5031798;28;20686;-88
2023/05/11 06:54:42;;;;;;;3.93;3.70;;;15.60;97.30;;;;;;5032024;28;20719;-88
2023/05/11 06:57:08;;;;;;;6.23;4.30;;;15.70;97.30;;;;;;5031301;28;20206;-89
2023/05/11 06:59:33;;;;;;;4.23;3.80;;;15.80;97.30;;;;;;5032632;28;20563;-89
2023/05/11 07:01:58;;;;;;;3.27;3.10;;;15.90;97.30;;;;;;5050185;28;20194;-88
2023/05/11 07:04:24;;;;;;;5.23;3.57;;;16.00;97.30;;;;;;5032435;28;20199;-88
2023/05/11 07:06:50;;;;;;;3.27;3.10;;;16.10;97.30;;;;;;5030966;28;20175;-89
2023/05/11 07:09:15;;;;;;;7.40;4.07;;;16.20;97.30;;;;;;5034142;28;20186;-88
2023/05/11 07:11:41;;;;;;;3.10;2.90;;;16.30;97.30;;;;;;5050145;28;20171;-88
2023/05/11 07:14:07;;;;;;;11.53;3.93;;;16.40;97.30;;;;;;5032378;28;20727;-87
2023/05/11 07:16:36;;;;;;;5.00;3.33;;;16.50;97.30;;;;;;5039049;28;20653;-88
2023/05/11 07:19:03;;;;;;;9.43;3.67;;;16.60;97.30;;;;;;5032112;28;20873;-89
2023/05/11 07:21:28;;;;;;;7.37;2.77;;;16.70;97.30;;;;;;5032315;28;20950;-88
2023/05/11 07:23:53;;;;;;;10.70;3.30;;;16.80;97.30;;;;;;5032535;28;20429;-88
2023/05/11 07:26:20;;;;;;;5.50;3.83;;;16.90;97.30;;;;;;5038750;28;20227;-88
2023/05/11 07:28:46;;;;;;;7.17;5.30;;;16.90;97.30;;;;;;5032335;28;20180;-88
2023/05/11 07:31:11;;;;;;;10.63;4.77;;;16.90;97.30;;;;;;5032307;28;20430;-91
2023/05/11 07:33:38;;;;;;;4.53;4.27;;;17.00;97.30;;;;;;5050064;28;20200;-88
2023/05/11 07:36:04;;;;;;;3.90;2.83;;;17.00;97.30;;;;;;5054499;28;20215;-88
2023/05/11 07:38:30;;;;;;;6.00;2.50;;;17.00;97.30;;;;;;5031996;28;20878;-89
2023/05/11 07:40:55;;;;;;;4.33;3.80;;;17.00;97.30;;;;;;5050391;28;20510;-88
2023/05/11 07:43:21;;;;;;;9.10;4.20;;;16.90;97.30;;;;;;5040026;28;20187;-88
2023/05/11 07:45:46;;;;;;;7.57;4.67;;;16.80;97.30;;;;;;5030503;28;20241;-88
2023/05/11 07:48:12;;;;;;;9.17;3.97;;;16.80;97.30;;;;;;5024472;28;20654;-89
2023/05/11 07:50:37;;;;;;;4.50;3.53;;;16.90;97.30;;;;;;5018305;28;20208;-88
2023/05/11 07:53:03;;;;;;;4.47;3.10;;;17.00;97.30;;;;;;5013478;28;20578;-88
2023/05/11 07:55:29;;;;;;;5.33;5.03;;;17.10;97.30;;;;;;5030698;28;20202;-88
2023/05/11 07:57:55;;;;;;;4.97;3.27;;;17.30;97.30;;;;;;5015898;28;20189;-86
2023/05/11 08:00:21;;;;;;;3.23;2.80;;;17.40;97.30;;;;;;5023130;28;20635;-88
2023/05/11 08:02:46;;;;;;;4.10;3.67;;;17.70;97.30;;;;;;5032160;28;20187;-88
2023/05/11 08:05:12;;;;;;;8.70;5.17;;;17.90;97.30;;;;;;5024827;28;20686;-89
2023/05/11 08:07:38;;;;;;;5.00;3.43;;;18.10;97.30;;;;;;5022857;28;20451;-88
2023/05/11 08:10:04;;;;;;;6.20;2.63;;;18.10;97.30;;;;;;5026659;28;20302;-88
2023/05/11 08:12:29;;;;;;;2.60;2.40;;;18.20;97.30;;;;;;5029353;28;20589;-89
2023/05/11 08:14:55;;;;;;;2.87;2.47;;;18.10;97.30;;;;;;5053684;28;20437;-89
2023/05/11 08:17:20;;;;;;;3.33;2.70;;;18.10;97.30;;;;;;5037723;28;20179;-86
2023/05/11 08:19:46;;;;;;;4.50;3.40;;;18.20;97.30;;;;;;5021394;28;20666;-89
2023/05/11 08:22:12;;;;;;;8.30;3.27;;;18.10;97.30;;;;;;5025665;28;20188;-87
2023/05/11 08:24:37;;;;;;;9.17;3.80;;;18.00;97.30;;;;;;5027770;28;20261;-88
2023/05/11 08:27:03;;;;;;;5.03;4.20;;;17.90;97.30;;;;;;5017339;28;20470;-87
2023/05/11 08:29:29;;;;;;;8.43;4.60;;;17.80;97.30;;;;;;5053402;28;20615;-87
2023/05/11 08:31:55;;;;;;;5.03;2.90;;;17.80;97.30;;;;;;5018976;28;20550;-91
2023/05/11 08:34:21;;;;;;;2.57;2.37;;;17.90;97.30;;;;;;5027055;28;20650;-87
2023/05/11 08:36:50;;;;;;;6.30;3.60;;;18.00;97.30;;;;;;5024182;28;20689;-89
2023/05/11 08:39:20;;;;;;;4.33;3.40;;;18.10;97.30;;;;;;5018557;28;20452;-88
2023/05/11 08:41:49;;;;;;;5.30;2.63;;;18.20;97.30;;;;;;5027425;28;20959;-87
2023/05/11 08:44:16;;;;;;;6.23;2.97;;;18.30;97.30;;;;;;5027089;28;20949;-87
2023/05/11 08:46:46;;;;;;;2.33;2.13;;;18.30;97.30;;;;;;5038529;28;20546;-87
2023/05/11 08:49:12;;;;;;;2.77;2.60;;;18.30;97.30;;;;;;5035361;28;20944;-87
2023/05/11 08:51:40;;;;;;;10.03;4.73;;;18.20;97.30;;;;;;5061221;28;20414;-87
2023/05/11 08:54:08;;;;;;;3.50;3.30;;;18.00;97.30;;;;;;5035303;28;20420;-87
2023/05/11 08:56:36;;;;;;;5.20;3.37;;;17.90;97.30;;;;;;5033434;28;20418;-88
2023/05/11 08:59:03;;;;;;;6.90;3.77;;;17.80;97.30;;;;;;5034451;28;20419;-87
2023/05/11 09:01:30;;;;;;;8.00;4.50;;;17.80;97.30;;;;;;5035045;28;20419;-89
2023/05/11 09:03:57;;;;;;;2.80;2.60;;;17.90;97.30;;;;;;5042760;28;20466;-87
2023/05/11 09:06:23;;;;;;;5.80;3.13;;;18.20;97.30;;;;;;5024454;28;20433;-87
2023/05/11 09:08:49;;;;;;;5.20;3.17;;;18.60;97.30;;;;;;5052421;28;20450;-87
2023/05/11 09:11:15;;;;;;;6.97;3.33;;;18.80;97.30;;;;;;5033170;28;20442;-88
2023/05/11 09:13:41;;;;;;;3.63;3.40;;;19.00;97.30;;;;;;5038638;28;20462;-87
2023/05/11 09:16:06;;;;;;;5.63;3.80;;;19.00;97.30;;;;;;5030678;28;20208;-89
2023/05/11 09:18:32;;;;;;;2.37;2.17;;;19.20;97.30;;;;;;5032326;28;20176;-89
2023/05/11 09:21:00;;;;;;;4.57;2.93;;;19.40;97.30;;;;;;5045043;28;20178;-86
2023/05/11 09:23:26;;;;;;;2.37;2.20;;;19.70;97.20;;;;;;5033304;28;20171;-87
2023/05/11 09:25:52;;;;;;;11.10;2.83;;;19.90;95.90;;;;;;5032930;28;20444;-87
2023/05/11 09:28:24;;;;;;;3.37;2.60;;;20.00;96.10;;;;;;5042084;28;20427;-88
2023/05/11 09:30:50;;;;;;;3.10;2.37;;;20.10;95.60;;;;;;5033941;28;20175;-87
2023/05/11 09:33:24;;;;;;;3.53;2.63;;;20.30;96.30;;;;;;5044888;28;20805;-87
2023/05/11 09:35:50;;;;;;;3.50;2.43;;;20.40;94.90;;;;;;5036511;28;20183;-88
2023/05/11 09:38:18;;;;;;;4.07;2.50;;;20.40;95.10;;;;;;5051792;28;20912;-86
2023/05/11 09:40:55;;;;;;;1.63;1.53;;;20.20;94.70;;;;;;5048518;28;20426;-88
2023/05/11 09:43:29;;;;;;;4.03;2.53;;;20.10;95.40;;;;;;5033977;28;20835;-87
2023/05/11 09:45:57;;;;;;;3.40;3.20;;;20.10;94.90;;;;;;5032089;28;20469;-88
2023/05/11 09:48:25;;;;;;;7.83;3.70;;;20.10;95.40;;;;;;5033649;28;20437;-88
2023/05/11 09:51:04;;;;;;;1.60;1.50;;;20.10;94.70;;;;;;5033741;28;20418;-86
2023/05/11 09:54:00;;;;;;;1.33;1.33;;;20.00;95.00;;;;;;5033653;28;20469;-90
2023/05/11 09:56:45;;;;;;;3.73;2.33;;;19.80;94.50;;;;;;5023015;28;20427;-87
2023/05/11 09:59:11;;;;;;;4.53;4.00;;;19.70;94.60;;;;;;5035808;28;20441;-87
2023/05/11 10:01:39;;;;;;;1.47;1.47;;;19.70;95.30;;;;;;5040606;28;20438;-87
2023/05/11 10:04:07;;;;;;;3.87;2.83;;;19.90;95.60;;;;;;5034316;28;20415;-87
2023/05/11 10:06:42;;;;;;;3.03;2.33;;;20.30;95.30;;;;;;5065189;28;20456;-87
2023/05/11 10:09:09;;;;;;;9.03;1.50;;;20.60;96.20;;;;;;5033286;28;20479;-88
2023/05/11 10:11:36;;;;;;;2.60;2.20;;;20.80;94.30;;;;;;5042161;28;20589;-87
2023/05/11 10:14:02;;;;;;;2.60;2.13;;;20.90;92.40;;;;;;5033209;28;20801;-87
2023/05/11 10:16:28;;;;;;;3.90;2.67;;;20.90;92.50;;;;;;5031695;28;20438;-87
2023/05/11 10:18:53;;;;;;;3.80;2.60;;;20.90;93.30;;;;;;5050660;28;20419;-87
2023/05/11 10:21:19;;;;;;;3.00;2.10;;;21.00;94.20;;;;;;5033209;28;20203;-87
2023/05/11 10:23:45;;;;;;;3.10;2.77;;;21.10;92.90;;;;;;5033023;28;20546;-87
2023/05/11 10:26:11;;;;;;;1.90;1.83;;;21.20;91.90;;;;;;5031131;28;20438;-89
2023/05/11 10:28:38;;;;;;;4.63;2.13;;;21.40;92.10;;;;;;5041226;28;20179;-88
2023/05/11 10:31:04;;;;;;;6.07;3.47;;;21.50;91.40;;;;;;5032753;28;20437;-90
2023/05/11 10:33:31;;;;;;;2.83;2.40;;;21.40;91.00;;;;;;5040835;28;20476;-89
2023/05/11 10:35:56;;;;;;;2.73;2.53;;;21.10;90.60;;;;;;5048787;28;20430;-87
2023/05/11 10:38:24;;;;;;;3.90;3.33;;;20.80;91.90;;;;;;5033059;28;20421;-90
2023/05/11 10:40:51;;;;;;;3.10;2.93;;;20.90;93.20;;;;;;5031577;28;20176;-87
2023/05/11 10:43:45;;;;;;;2.40;2.20;;;21.00;92.80;;;;;;5032787;28;20565;-87
2023/05/11 10:46:49;;;;;;;3.60;2.73;;;20.90;92.70;;;;;;5046228;23;20486;-86
2023/05/11 10:49:41;;;;;;;5.93;2.90;;;20.90;92.50;;;;;;5041493;28;20452;-88
2023/05/11 10:52:43;;;;;;;2.93;2.60;;;20.80;92.50;;;;;;5042526;28;20447;-87
2023/05/11 10:55:26;;;;;;;5.80;3.10;;;20.90;93.10;;;;;;5028047;28;20442;-87
2023/05/11 10:58:13;;;;;;;5.37;2.93;;;21.30;93.20;;;;;;5049543;28;20962;-86
2023/05/11 11:00:59;;;;;;;4.30;2.77;;;21.70;92.10;;;;;;5018108;28;20418;-89
2023/05/11 11:03:24;;;;;;;4.67;3.13;;;22.10;92.20;;;;;;5024550;28;20776;-89
2023/05/11 11:05:50;;;;;;;2.73;2.23;;;22.40;89.40;;;;;;5024732;28;20447;-89
2023/05/11 11:08:15;;;;;;;16.23;3.10;;;22.50;88.40;;;;;;5037121;28;20665;-90
2023/05/11 11:10:44;;;;;;;2.83;1.90;;;22.80;91.50;;;;;;5035156;28;20172;-89
2023/05/11 11:13:15;;;;;;;3.10;2.73;;;22.90;88.60;;;;;;5031989;28;20241;-89
2023/05/11 11:15:53;;;;;;;3.60;2.60;;;22.70;86.60;;;;;;5025591;28;20492;-89
2023/05/11 11:18:32;;;;;;;2.80;2.37;;;22.40;88.60;;;;;;5022964;28;20414;-89
2023/05/11 11:20:58;;;;;;;5.10;3.50;;;22.20;88.30;;;;;;5032697;28;20517;-89
2023/05/11 11:23:39;;;;;;;2.43;2.20;;;22.30;90.60;;;;;;5013455;28;20451;-90
2023/05/11 11:26:05;;;;;;;2.33;1.57;;;22.60;87.70;;;;;;5037019;28;20453;-90
2023/05/11 11:28:59;;;;;;;3.17;2.23;;;22.80;87.80;;;;;;5049129;28;20425;-89
2023/05/11 11:31:26;;;;;;;3.80;2.60;;;23.10;87.50;;;;;;5017846;28;20507;-88
2023/05/11 11:33:55;;;;;;;4.00;2.50;;;23.30;86.50;;;;;;5045785;28;20551;-89
2023/05/11 11:37:05;;;;;;;1.50;1.40;;;23.40;84.90;;;;;;5027292;28;20447;-88
2023/05/11 11:39:43;;;;;;;6.30;2.30;;;23.60;84.90;;;;;;5016073;28;20439;-89
2023/05/11 11:42:12;;;;;;;2.40;2.20;;;23.80;86.20;;;;;;5033315;28;20472;-89
2023/05/11 11:44:39;;;;;;;1.90;1.83;;;23.80;84.60;;;;;;5023176;28;20438;-89
2023/05/11 11:47:20;;;;;;;2.00;1.93;;;23.80;84.40;;;;;;5021366;28;20462;-87
2023/05/11 11:49:47;;;;;;;7.40;3.10;;;23.90;83.40;;;;;;5053841;28;20418;-90
2023/05/11 11:52:32;;;;;;;2.80;2.13;;;24.00;81.90;;;;;;5027532;28;20493;-89
2023/05/11 11:54:59;;;;;;;2.20;1.77;;;23.70;82.60;;;;;;5052391;28;20501;-89
2023/05/11 11:57:33;;;;;;;2.57;2.00;;;23.40;83.70;;;;;;5019237;28;20432;-90
2023/05/11 12:00:05;;;;;;;1.83;1.60;;;23.30;86.00;;;;;;5020396;28;20418;-89
2023/05/11 12:02:32;;;;;;;2.17;2.00;;;23.30;84.80;;;;;;5032333;28;20419;-90
2023/05/11 12:05:21;;;;;;;2.97;2.77;;;23.30;84.70;;;;;;5014783;28;20418;-91
2023/05/11 12:07:51;;;;;;;2.63;2.47;;;23.30;84.50;;;;;;5037504;28;20437;-90
2023/05/11 12:10:18;;;;;;;1.80;1.70;;;23.20;83.60;;;;;;5051511;28;20427;-90
2023/05/11 12:12:45;;;;;;;2.27;1.97;;;23.00;83.30;;;;;;5029495;28;20485;-89
2023/05/11 12:15:28;;;;;;;1.80;1.75;;;22.80;82.60;;;;;;5026027;28;20431;-91
2023/05/11 12:17:55;;;;;;;2.23;1.83;;;22.60;84.60;;;;;;5055791;28;20436;-92
2023/05/11 12:20:20;;;;;;;5.73;3.73;;;22.40;84.10;;;;;;5049118;28;20422;-90
2023/05/11 12:22:47;;;;;;;3.90;2.57;;;22.30;84.80;;;;;;5046450;28;20792;-89
2023/05/11 12:25:16;;;;;;;2.40;2.00;;;22.10;85.70;;;;;;5015774;28;20204;-89
2023/05/11 12:28:01;;;;;;;1.90;1.80;;;22.10;85.30;;;;;;5035793;28;20422;-89
2023/05/11 12:30:29;;;;;;;3.00;2.03;;;22.00;85.00;;;;;;5053624;28;20591;-89
2023/05/11 12:32:55;;;;;;;1.90;1.80;;;21.90;84.60;;;;;;5053252;28;20457;-89
2023/05/11 12:35:32;;;;;;;2.00;1.90;;;21.80;85.00;;;;;;5029633;28;20496;-89
2023/05/11 12:37:59;;;;;;;3.63;2.97;;;22.00;86.30;;;;;;5028179;28;20455;-89
2023/05/11 12:40:25;;;;;;;3.07;2.83;;;22.10;84.50;;;;;;5043626;28;20926;-89
2023/05/11 12:42:56;;;;;;;2.60;1.97;;;22.20;85.10;;;;;;5035594;28;20426;-89
2023/05/11 12:45:23;;;;;;;2.73;2.53;;;22.20;84.00;;;;;;5025601;28;20203;-88
2023/05/11 12:47:50;;;;;;;1.30;1.20;;;22.10;84.70;;;;;;5021760;28;20981;-90
2023/05/11 12:50:16;;;;;;;7.13;2.60;;;22.00;84.00;;;;;;5050132;28;20423;-88
2023/05/11 12:52:42;;;;;;;5.60;1.60;;;21.80;84.70;;;;;;5027291;28;21078;-89